• Join FlightAware (Why Join?)
  • Login
  • US Flag 
01:32AM EST


 

Airport Tracker/Info


-or-


 

Live Flight TrackerFlight Track Log ✈ SWA718 ✈ 25-Apr-2013 ✈ KCRP - KHOU

Flight Track Log - Related Links

Times and Time Zones

All times are in EDT time to prevent confusion due to time zone crossing. See the SWA718 flight status page for this flight to view local times or setup timezone preferences in your user account.

Time Position Orientation Groundspeed Altitude Reporting Facility
EDT Latitude Longitude Course Direction KTS MPH feet Rate Location/Type
03:47PM 27.7558 -97.4931 125° Southeast 136 157 1,200  Level Houston Center
03:48PM 27.7381 -97.4647 125° Southeast 180 207 2,800 2,927 Climbing Houston Center
03:49PM 27.7647 -97.4314 48° Northeast 219 252 5,200 3,246 Climbing Houston Center
03:49PM 27.7833 -97.4161 36° Northeast 251 289 6,100 3,484 Climbing Houston Center
03:50PM 27.8114 -97.3636 59° Northeast 277 319 8,800 4,019 Climbing Houston Center
03:51PM 27.8486 -97.2789 64° Northeast 297 342 13,000 3,774 Climbing Houston Center
03:52PM 27.8778 -97.1814 71° East 320 368 16,600 2,371 Climbing Houston Center
03:53PM 27.9097 -97.0475 75° East 379 436 17,900 816 Climbing Houston Center
03:54PM 27.9417 -96.9211 74° East 412 474 18,300 1,104 Climbing Houston Center
03:55PM 28.0228 -96.8367 43° Northeast 413 475 20,200 2,274 Climbing Houston Center
03:56PM 28.1342 -96.7808 24° Northeast 437 503 23,000 2,468 Climbing Houston Center
03:57PM 28.2597 -96.7614 North 455 524 25,300 2,855 Climbing Houston Center
03:58PM 28.4111 -96.7392 North 457 526 28,900 1,790 Climbing Houston Center
03:59PM 28.5372 -96.7144 10° North 459 528 29,000  Climbing Houston Center
04:00PM 28.6561 -96.7183 358° North 437 503 28,900 -576 Descending Houston Center
04:01PM 28.7292 -96.8019 315° West 382 440 27,800 -1,200 Descending Houston Center
04:02PM 28.7908 -96.8889 309° West 358 412 26,400 -1,597 Descending Houston Center
04:03PM 28.8533 -96.9781 309° West 357 411 24,500 -1,161 Descending Houston Center
04:04PM 28.9136 -97.0678 308° West 355 409 24,000 -161 Descending Houston Center
04:06PM 28.9516 -96.9237 71° East  Level FlightAware Approximate
04:06PM 29.0333 -97.2464 71° East 330 380 24,000  Level Houston Center
04:07PM 29.1103 -97.2975 330° Northwest 338 389 24,000  Level Houston Center
04:08PM 29.1825 -97.2156 45° Northeast 407 468 24,000  Level Houston Center
04:09PM 29.1961 -97.0822 83° East 424 488 24,000 -144 Level Houston Center
04:10PM 29.2122 -96.9239 83° East 424 488 23,700 -624 Descending Houston Center
04:11PM 29.2253 -96.7936 83° East 424 488 22,700 -968 Descending Houston Center
04:12PM 29.2033 -96.6678 101° East 414 476 21,700 -968 Descending Houston Center
04:13PM 29.1417 -96.5592 123° Southeast 407 468 20,700 -1,016 Descending Houston Center
04:14PM 29.0808 -96.4525 123° Southeast 404 465 19,600 -1,113 Descending Houston Center
04:16PM 29.0297 -96.3253 115° Southeast 387 445 18,400 -1,161 Descending Houston Center
04:17PM 29.0958 -96.2378 49° Northeast 372 428 17,200 -1,705 Descending Houston Center
04:17PM 29.1447 -96.1900 40° Northeast 363 418 15,700 -2,226 Descending Houston Center
04:18PM 29.1733 -96.1633 39° Northeast 367 422 14,900 -1,935 Descending Houston Center
04:18PM 29.2203 -96.1169 41° Northeast 356 410 13,700 -1,619 Descending Houston Center
04:19PM 29.2475 -96.0892 42° Northeast 358 412 13,200 -1,574 Descending Houston Center
04:19PM 29.2975 -96.0411 40° Northeast 358 412 12,100 -1,355 Descending Houston Center
04:20PM 29.3122 -96.0061 64° Northeast 354 407 11,800 -968 Descending Houston Center
04:20PM 29.3322 -95.9342 72° East 334 384 11,100 -1,355 Descending Houston Center
04:21PM 29.3422 -95.9006 71° East 337 388 10,400 -1,612 Descending Houston Center
04:21PM 29.3631 -95.8300 71° East 318 366 9,300 -1,645 Descending Houston Center
04:22PM 29.3758 -95.7869 71° East 315 362 8,700 -1,574 Descending Houston Center
04:22PM 29.3922 -95.7333 71° East 296 341 7,700 -1,548 Descending Houston Center
04:23PM 29.4011 -95.7006 73° East 293 337 7,100 -1,452 Descending Houston Center
04:23PM 29.4161 -95.6489 72° East 277 319 6,200 -1,065 Descending Houston Center
04:24PM 29.4228 -95.6172 76° East 280 322 6,000 -327 Descending Houston Center
04:24PM 29.4136 -95.5750 104° East 237 273 5,900 -194 Descending Houston Center
04:25PM 29.4086 -95.5458 101° East 232 267 5,800 -448 Descending Houston Center
04:25PM 29.4331 -95.5103 52° Northeast 188 216 5,400 -581 Descending Houston Center
04:26PM 29.4469 -95.5042 21° North 196 226 5,200 -774 Descending Houston Center
04:26PM 29.4844 -95.4994 North 185 213 4,600 -871 Descending Houston Center
04:27PM 29.4886 -95.4861 70° East 187 215 4,300 -885 Descending Houston Center
04:27PM 29.4886 -95.4508 90° East 173 199 3,700 -762 Descending Houston Center
04:28PM 29.5050 -95.4322 45° Northeast 175 201 3,500 -581 Descending Houston Center
04:28PM 29.5228 -95.4131 43° Northeast 168 193 3,100 -774 Descending Houston Center
04:29PM 29.5381 -95.3969 43° Northeast 167 192 2,700 -774 Descending Houston Center
04:29PM 29.5572 -95.3753 45° Northeast 160 184 2,300 -774 Descending Houston Center
04:30PM 29.5708 -95.3611 42° Northeast 164 189 1,900 -885 Descending Houston Center
04:31PM 29.5897 -95.3403 44° Northeast 157 181 1,400 -677 Descending Houston Center
04:31PM 29.6008 -95.3278 44° Northeast 157 181 1,200 -590 Descending Houston Center
04:32PM 29.6125 -95.3136 47° Northeast 110 127 800 -677 Descending Houston Center
04:32PM 29.6239 -95.3019 42° Northeast 133 153 500 -442 Descending Houston Center
04:33PM 29.6506 -95.2744 42° Northeast 124 143 100 -387 Descending Houston Center
04:35PM 29.6454 -95.2789 53° Northeast  Level Estimated